Dupuy, Canada
Current Conditions -  °F | °C
As of 2:00 PM on Monday 20 Oct 2014 (Local Time) from CYUY Reporting Station
Overcast Overcast  
Wind Chill: 32°   Ceiling: 700
Heat Index: 37°   Visibility: 15mi
Dew Point: 34°   Wind: 7mph
Humidity: 87%   Direction: 120°ESE
Pressure: 29.84"   Gusts: NA
Location:  48.83°N, 79.37°W
Report Text: CYUY 201800Z 12006KT 15SM OVC007 03/01 A2984 RMK SF8 SLP121
Loading
Personal Weather Stations






























Interactive Weather Map
Tropical Storm Tracking
New forecast layout! Learn more

10-Day Weather Forecast

Advertisements
Track Severe Weather on mobile